• Join FlightAware (Why Join?)
  • Login
  • US Flag 
12:52AM EDT


 

Airport Tracker/Info


-or-


 

Live Flight TrackerFlight Track Log ✈ AAL970 ✈ 26-Jul-2013 ✈ MNMG / MGA - KMIA

Flight Track Log - Related Links

Times and Time Zones

All times are in EDT time to prevent confusion due to time zone crossing. See the AAL970 flight status page for this flight to view local times or setup timezone preferences in your user account.

Time Position Orientation Groundspeed Altitude Reporting Facility
EDT Latitude Longitude Course Direction KTS MPH feet Rate Location/Type
02:49PM 12.6665 -85.9597 21° North  Level FlightAware Approximate
02:50PM 12.7715 -85.9180 21° North  Level FlightAware Approximate
02:51PM 12.8765 -85.8761 21° North  Level FlightAware Approximate
02:52PM 12.9814 -85.8343 21° North  Level FlightAware Approximate
02:53PM 13.0864 -85.7924 21° North  Level FlightAware Approximate
02:54PM 13.1913 -85.7505 21° North  Level FlightAware Approximate
02:55PM 13.2963 -85.7085 21° North  Level FlightAware Approximate
02:56PM 13.4012 -85.6665 21° North  Level FlightAware Approximate
02:57PM 13.5062 -85.6245 21° North  Level FlightAware Approximate
02:58PM 13.6111 -85.5824 21° North  Level FlightAware Approximate
02:59PM 13.7160 -85.5403 21° North  Level FlightAware Approximate
03:00PM 13.8209 -85.4979 21° North  Level Estimated
03:01PM 13.9258 -85.4559 21° North  Level FlightAware Approximate
03:02PM 14.0308 -85.4138 21° North  Level FlightAware Approximate
03:03PM 14.1357 -85.3717 21° North  Level FlightAware Approximate
03:04PM 14.2407 -85.3295 21° North  Level FlightAware Approximate
03:05PM 14.3456 -85.2873 21° North  Level FlightAware Approximate
03:06PM 14.4505 -85.2450 21° North  Level FlightAware Approximate
03:07PM 14.5554 -85.2027 21° North  Level FlightAware Approximate
03:08PM 14.6603 -85.1604 21° North  Level FlightAware Approximate
03:09PM 14.7652 -85.1180 21° North  Level FlightAware Approximate
03:10PM 14.8701 -85.0756 21° North  Level FlightAware Approximate
03:11PM 14.9748 -85.0328 21° North  Level Estimated
03:12PM 15.0799 -84.9909 21° North  Level FlightAware Approximate
03:13PM 15.1850 -84.9489 21° North  Level FlightAware Approximate
03:14PM 15.2901 -84.9069 21° North  Level FlightAware Approximate
03:15PM 15.3951 -84.8648 21° North  Level FlightAware Approximate
03:16PM 15.5002 -84.8227 21° North  Level FlightAware Approximate
03:17PM 15.6052 -84.7805 21° North  Level FlightAware Approximate
03:18PM 15.7102 -84.7384 21° North  Level FlightAware Approximate
03:19PM 15.8153 -84.6961 21° North  Level FlightAware Approximate
03:20PM 15.9203 -84.6538 21° North  Level FlightAware Approximate
03:21PM 16.0253 -84.6115 21° North  Level FlightAware Approximate
03:22PM 16.1303 -84.5692 21° North  Level FlightAware Approximate
03:23PM 16.2353 -84.5267 21° North  Level FlightAware Approximate
03:24PM 16.3403 -84.4843 21° North  Level FlightAware Approximate
03:25PM 16.4453 -84.4418 21° North  Level FlightAware Approximate
03:26PM 16.5502 -84.3992 21° North  Level FlightAware Approximate
03:27PM 16.6552 -84.3566 21° North  Level FlightAware Approximate
03:28PM 16.7601 -84.3140 21° North  Level FlightAware Approximate
03:29PM 16.8651 -84.2713 21° North  Level FlightAware Approximate
03:30PM 16.9700 -84.2286 21° North  Level FlightAware Approximate
03:31PM 17.0749 -84.1858 21° North  Level FlightAware Approximate
03:32PM 17.1798 -84.1429 21° North  Level FlightAware Approximate
03:33PM 17.2848 -84.1001 21° North  Level FlightAware Approximate
03:34PM 17.3897 -84.0571 21° North  Level FlightAware Approximate
03:35PM 17.4946 -84.0142 21° North  Level FlightAware Approximate
03:36PM 17.5994 -83.9711 21° North  Level FlightAware Approximate
03:37PM 17.7043 -83.9280 21° North  Level FlightAware Approximate
03:38PM 17.8092 -83.8849 21° North  Level FlightAware Approximate
03:39PM 17.9140 -83.8417 21° North  Level FlightAware Approximate
03:40PM 18.0189 -83.7985 21° North  Level FlightAware Approximate
03:41PM 18.1237 -83.7552 21° North  Level FlightAware Approximate
03:42PM 18.2285 -83.7119 21° North  Level FlightAware Approximate
03:43PM 18.3333 -83.6685 21° North  Level FlightAware Approximate
03:44PM 18.4381 -83.6251 21° North  Level FlightAware Approximate
03:45PM 18.5429 -83.5816 21° North  Level FlightAware Approximate
03:46PM 18.6477 -83.5380 21° North  Level FlightAware Approximate
03:47PM 18.7525 -83.4944 22° Northeast  Level FlightAware Approximate
03:48PM 18.8572 -83.4508 22° Northeast  Level FlightAware Approximate
03:49PM 18.9620 -83.4071 22° Northeast  Level FlightAware Approximate
03:50PM 19.0667 -83.3633 22° Northeast  Level FlightAware Approximate
03:51PM 19.1714 -83.3195 22° Northeast  Level FlightAware Approximate
03:52PM 19.2761 -83.2756 22° Northeast  Level FlightAware Approximate
03:53PM 19.3809 -83.2317 22° Northeast  Level FlightAware Approximate
03:54PM 19.4856 -83.1877 22° Northeast  Level FlightAware Approximate
03:55PM 19.5903 -83.1436 22° Northeast  Level FlightAware Approximate
03:56PM 19.6949 -83.0995 22° Northeast  Level FlightAware Approximate
03:57PM 19.8006 -83.0531 22° Northeast  Level Estimated
03:58PM 19.9068 -83.0080 22° Northeast  Level FlightAware Approximate
03:59PM 20.0130 -82.9629 22° Northeast  Level FlightAware Approximate
04:00PM 20.1191 -82.9178 22° Northeast  Level FlightAware Approximate
04:01PM 20.2247 -82.8710 22° Northeast  Level Estimated
04:02PM 20.3309 -82.8257 22° Northeast  Level FlightAware Approximate
04:03PM 20.4370 -82.7804 22° Northeast  Level FlightAware Approximate
04:04PM 20.5431 -82.7350 22° Northeast  Level FlightAware Approximate
04:05PM 20.6493 -82.6896 22° Northeast  Level FlightAware Approximate
04:06PM 20.7554 -82.6441 22° Northeast  Level FlightAware Approximate
04:07PM 20.8615 -82.5985 22° Northeast  Level FlightAware Approximate
04:08PM 20.9676 -82.5528 22° Northeast  Level FlightAware Approximate
04:09PM 21.0737 -82.5071 22° Northeast  Level FlightAware Approximate
04:10PM 21.1797 -82.4614 22° Northeast  Level FlightAware Approximate
04:11PM 21.2858 -82.4155 22° Northeast  Level FlightAware Approximate
04:12PM 21.3918 -82.3696 22° Northeast  Level FlightAware Approximate
04:13PM 21.4979 -82.3236 22° Northeast  Level FlightAware Approximate
04:14PM 21.6039 -82.2776 22° Northeast  Level FlightAware Approximate
04:15PM 21.7099 -82.2315 22° Northeast  Level FlightAware Approximate
04:16PM 21.8159 -82.1853 22° Northeast  Level FlightAware Approximate
04:17PM 21.9219 -82.1391 22° Northeast  Level FlightAware Approximate
04:18PM 22.0278 -82.0928 22° Northeast  Level FlightAware Approximate
04:19PM 22.1308 -82.0438 24° Northeast  Level FlightAware Approximate
04:20PM 22.2337 -81.9947 24° Northeast  Level FlightAware Approximate
04:20PM 23.1200 -81.4930 24° Northeast 449 517 34,000  Level FlightAware
04:21PM 22.3391 -81.9444 24° Northeast  Level FlightAware Approximate
04:21PM 23.2120 -81.4650 16° North 448 516 34,000  Level FlightAware
04:21PM 23.2820 -81.4430 16° North 449 517 34,000  Level FlightAware
04:22PM 23.3600 -81.4180 16° North 451 519 34,000  Level FlightAware
04:23PM 23.4430 -81.3920 16° North 452 520 34,000  Level FlightAware
04:23PM 23.5230 -81.3670 16° North 451 519 34,000  Level FlightAware
04:24PM 23.6150 -81.3380 16° North 452 520 34,000  Level FlightAware
04:25PM 23.7080 -81.3090 16° North 452 520 34,000  Level FlightAware
04:26PM 23.7880 -81.2840 16° North 453 521 34,000  Level FlightAware
04:26PM 23.8680 -81.2590 16° North 455 524 34,000  Level FlightAware
04:27PM 23.9600 -81.2300 16° North 455 524 34,000 -120 Level FlightAware
04:28PM 24.0410 -81.2090 13° North 443 510 33,900 -720 Descending FlightAware
04:28PM 24.1230 -81.1930 10° North 426 490 33,100 -1,140 Descending FlightAware
04:29PM 24.2040 -81.1770 10° North 423 487 32,400 -1,020 Descending FlightAware
04:30PM 24.2930 -81.1590 10° North 426 490 31,700 -900 Descending FlightAware
04:30PM 24.3620 -81.1470 North 435 501 31,200 -960 Descending FlightAware
04:31PM 24.4060 -81.1510 355° North 436 502 30,800 -1,080 Descending FlightAware
04:31PM 24.4760 -81.1570 356° North 435 501 30,200 -1,020 Descending FlightAware
04:32PM 24.5680 -81.1660 355° North 438 504 29,500 -960 Descending FlightAware
04:33PM 24.6580 -81.1740 355° North 436 502 28,800 -960 Descending FlightAware
04:33PM 24.7230 -81.1780 357° North 437 503 28,300 -960 Descending FlightAware
04:34PM 24.8020 -81.1600 12° North 440 506 27,700 -1,500 Descending FlightAware
04:35PM 24.8800 -81.1330 17° North 436 502 26,300 -2,220 Descending FlightAware
04:35PM 24.9570 -81.1070 17° North 419 482 24,800 -2,280 Descending FlightAware
04:36PM 25.0420 -81.0790 17° North 408 470 23,100 -2,220 Descending FlightAware
04:37PM 25.1230 -81.0520 17° North 404 465 21,500 -2,160 Descending FlightAware
04:37PM 25.1930 -81.0280 17° North 387 445 20,100 -2,040 Descending FlightAware
04:38PM 25.2630 -81.0050 17° North 374 430 18,800 -1,800 Descending FlightAware
04:39PM 25.3370 -80.9790 18° North 369 425 17,600 -1,680 Descending FlightAware
04:39PM 25.3930 -80.9610 16° North 353 406 16,600 -1,800 Descending FlightAware
04:40PM 25.4640 -80.9360 18° North 354 407 15,300 -1,800 Descending FlightAware
04:41PM 25.5290 -80.9150 16° North 354 407 14,100 -1,500 Descending FlightAware
04:42PM 25.5810 -80.8500 48° Northeast 348 400 13,100 -1,320 Descending FlightAware
04:42PM 25.5930 -80.8170 68° East 343 395 12,600 -1,440 Descending FlightAware
04:43PM 25.6320 -80.7640 51° Northeast 322 371 11,700 -1,200 Descending FlightAware
04:43PM 25.6770 -80.7090 48° Northeast 307 353 10,900 -900 Descending FlightAware
04:44PM 25.6930 -80.6780 60° Northeast 297 342 10,700 -660 Descending FlightAware
04:44PM 25.6950 -80.6540 85° East 288 331 10,500 -1,080 Descending FlightAware
04:45PM 25.6970 -80.6080 87° East 293 337 9,900 -600 Descending FlightAware
04:45PM 25.6990 -80.5640 87° East 291 335 9,900 60 Level FlightAware
04:45PM 25.7010 -80.5260 87° East 293 337 10,000  Climbing FlightAware
04:46PM 25.7030 -80.4810 87° East 293 337 9,900 -120 Descending FlightAware
04:46PM 25.7050 -80.4440 87° East 291 335 9,900  Level FlightAware
04:47PM 25.7070 -80.4070 87° East 290 334 9,900 -240 Level FlightAware
04:47PM 25.7090 -80.3710 86° East 273 314 9,700 -780 Descending FlightAware
04:48PM 25.7030 -80.3330 100° East 258 297 9,200 -1,320 Descending FlightAware
04:48PM 25.6820 -80.2980 124° Southeast 262 302 8,400 -1,560 Descending FlightAware
04:49PM 25.6650 -80.2700 124° Southeast 259 298 7,800 -1,320 Descending FlightAware
04:49PM 25.6460 -80.2380 123° Southeast 245 282 7,200 -1,200 Descending FlightAware
04:49PM 25.6390 -80.2270 125° Southeast 241 277 7,000 -1,560 Descending FlightAware
04:50PM 25.6240 -80.2010 123° Southeast 239 275 6,300 -1,620 Descending FlightAware
04:50PM 25.6120 -80.1810 124° Southeast 231 266 5,800 -1,500 Descending FlightAware
04:50PM 25.5970 -80.1570 125° Southeast 217 250 5,200 -1,440 Descending FlightAware
04:51PM 25.5820 -80.1300 122° Southeast 219 252 4,500 -1,440 Descending FlightAware
04:51PM 25.5680 -80.1060 123° Southeast 218 251 3,900 -840 Descending FlightAware
04:52PM 25.5650 -80.0860 99° East 221 254 3,900 120 Level FlightAware
04:52PM 25.5630 -80.0550 94° East 220 253 4,000  Climbing FlightAware
04:53PM 25.5620 -80.0240 92° East 218 251 3,900  Descending FlightAware
04:53PM 25.5600 -79.9950 94° East 219 252 4,000  Climbing FlightAware
04:54PM 25.5710 -79.9520 74° East 206 237 3,900 -120 Descending FlightAware
04:54PM 25.5840 -79.9460 23° Northeast 195 224 3,900 -240 Level FlightAware
04:54PM 25.5980 -79.9480 353° North 182 209 3,800 -1,080 Descending FlightAware
04:55PM 25.6160 -79.9610 327° Northwest 191 220 3,200 -1,380 Descending FlightAware
04:55PM 25.6250 -79.9710 315° West 187 215 2,900 -600 Descending FlightAware
04:55PM 25.6330 -79.9830 306° West 187 215 2,900  Level FlightAware
04:56PM 25.6480 -80.0060 306° West 181 208 2,900 120 Level FlightAware
04:56PM 25.6560 -80.0230 298° West 180 207 3,000  Climbing FlightAware
04:56PM 25.6620 -80.0350 299° West 182 209 2,900  Descending FlightAware
04:57PM 25.6730 -80.0560 300° West 179 206 3,000  Climbing FlightAware
04:57PM 25.6860 -80.0790 302° West 174 200 2,900 -180 Descending FlightAware
04:57PM 25.6900 -80.0870 299° West 175 201 2,900  Level FlightAware
04:58PM 25.7080 -80.1230 299° West 176 203 2,900 -180 Level FlightAware
04:59PM 25.7200 -80.1470 299° West 178 205 2,700 -780 Descending FlightAware
04:59PM 25.7300 -80.1670 299° West 173 199 2,200 -1,080 Descending FlightAware
04:59PM 25.7360 -80.1790 299° West 169 194 2,000 -840 Descending FlightAware
05:00PM 25.7470 -80.1990 301° West 152 175 1,600 -900 Descending FlightAware
05:00PM 25.7560 -80.2170 299° West 147 169 1,200 -900 Descending FlightAware
05:01PM 25.7660 -80.2370 299° West 151 174 800 -840 Descending FlightAware
05:01PM 25.7760 -80.2570 299° West 147 169 400 -780 Descending FlightAware
05:02PM 25.7840 -80.2720 301° West 140 161 100 -360 Descending FlightAware
05:02PM 25.7930 -80.2910 298° West 141 162 100  Level FlightAware